createdAt,value
2022-07-26T00:00:15.463Z,60.30
2022-07-26T00:02:48.007Z,60.10
2022-07-26T00:05:17.280Z,60.40
2022-07-26T00:07:44.704Z,60.30
2022-07-26T00:10:12.603Z,60.00
2022-07-26T00:12:40.044Z,59.80
2022-07-26T00:15:10.269Z,60.40
2022-07-26T00:17:37.316Z,61.70
2022-07-26T00:20:05.127Z,60.50
2022-07-26T00:22:32.175Z,60.90
2022-07-26T00:24:59.180Z,60.40
2022-07-26T00:27:26.221Z,61.40
2022-07-26T00:29:53.485Z,61.80
2022-07-26T00:32:20.425Z,61.60
2022-07-26T00:34:47.355Z,61.80
2022-07-26T00:37:19.958Z,61.80
2022-07-26T00:39:47.311Z,62.10
2022-07-26T00:42:14.262Z,61.80
2022-07-26T00:44:43.593Z,62.00
2022-07-26T00:47:13.202Z,61.50
2022-07-26T00:49:40.861Z,61.60
2022-07-26T00:52:09.138Z,62.40
2022-07-26T00:54:38.055Z,61.90
2022-07-26T00:57:05.623Z,61.30
2022-07-26T00:59:32.978Z,60.70
2022-07-26T01:02:00.096Z,61.60
2022-07-26T01:04:27.214Z,62.10
2022-07-26T01:06:54.657Z,62.00
2022-07-26T01:09:21.624Z,62.60
2022-07-26T01:11:48.600Z,63.10
2022-07-26T01:14:15.856Z,62.40
2022-07-26T01:16:42.910Z,62.70
2022-07-26T01:19:09.939Z,62.80
2022-07-26T01:21:36.864Z,62.50
2022-07-26T01:24:04.199Z,61.90
2022-07-26T01:26:31.201Z,61.60
2022-07-26T01:28:58.204Z,62.70
2022-07-26T01:31:25.279Z,62.40
2022-07-26T01:33:52.603Z,61.70
2022-07-26T01:36:19.815Z,61.50
2022-07-26T01:38:46.808Z,61.40
2022-07-26T01:41:14.057Z,60.90
2022-07-26T01:43:41.153Z,61.40
2022-07-26T01:46:09.073Z,60.30
2022-07-26T01:48:37.058Z,60.00
2022-07-26T01:51:04.340Z,59.50
2022-07-26T01:53:31.453Z,59.50
2022-07-26T01:55:58.779Z,59.50
2022-07-26T01:58:25.673Z,59.20
2022-07-26T02:00:52.612Z,59.50
2022-07-26T02:03:19.538Z,60.00
2022-07-26T02:05:46.557Z,61.20
2022-07-26T02:08:13.624Z,60.90
2022-07-26T02:10:40.612Z,60.80
2022-07-26T02:13:07.830Z,61.70
2022-07-26T02:15:35.325Z,62.10
2022-07-26T02:18:02.293Z,62.10
2022-07-26T02:20:29.250Z,62.10
2022-07-26T02:22:56.138Z,62.10
2022-07-26T02:25:23.078Z,62.00
2022-07-26T02:27:50.174Z,62.70
2022-07-26T02:30:17.158Z,63.50
2022-07-26T02:32:44.148Z,64.20
2022-07-26T02:35:11.796Z,64.10
2022-07-26T02:37:43.920Z,64.00
2022-07-26T02:40:16.923Z,64.40
2022-07-26T02:42:45.983Z,64.70
2022-07-26T02:45:12.973Z,64.80
2022-07-26T02:47:50.743Z,65.40
2022-07-26T02:50:18.729Z,65.20
2022-07-26T02:52:46.193Z,64.50
2022-07-26T02:55:13.275Z,64.60
2022-07-26T02:57:45.488Z,64.40
2022-07-26T03:00:16.194Z,64.20
2022-07-26T03:02:43.441Z,64.50
2022-07-26T03:05:11.148Z,64.60
2022-07-26T03:07:38.386Z,64.90
2022-07-26T03:10:05.997Z,65.10
2022-07-26T03:12:33.023Z,64.80
2022-07-26T03:15:00.419Z,65.00
2022-07-26T03:17:27.389Z,65.00
2022-07-26T03:19:54.436Z,65.10
2022-07-26T03:22:21.356Z,64.50
2022-07-26T03:24:48.412Z,65.20
2022-07-26T03:27:15.480Z,64.80
2022-07-26T03:29:42.418Z,64.30
2022-07-26T03:32:09.325Z,64.00
2022-07-26T03:34:36.349Z,63.40
2022-07-26T03:37:03.748Z,63.40
2022-07-26T03:39:30.845Z,63.80
2022-07-26T03:41:57.901Z,64.30
2022-07-26T03:44:24.844Z,63.60
2022-07-26T03:46:51.956Z,63.40
2022-07-26T03:49:19.108Z,63.10
2022-07-26T03:51:46.124Z,63.50
2022-07-26T03:54:13.121Z,65.10
2022-07-26T03:56:40.648Z,63.80
2022-07-26T03:59:09.565Z,65.20
2022-07-26T04:01:38.127Z,66.40
2022-07-26T04:04:05.288Z,65.30
2022-07-26T04:06:36.425Z,65.50
2022-07-26T04:09:05.568Z,63.90
2022-07-26T04:11:33.726Z,65.50
2022-07-26T04:14:01.611Z,65.60
2022-07-26T04:16:28.651Z,65.50
2022-07-26T04:18:55.741Z,66.80
2022-07-26T04:21:23.095Z,66.00
2022-07-26T04:23:51.535Z,65.50
2022-07-26T04:26:20.244Z,68.90
2022-07-26T04:28:47.518Z,69.00
2022-07-26T04:31:14.726Z,67.00
2022-07-26T04:33:42.161Z,67.70
2022-07-26T04:36:09.449Z,67.80
2022-07-26T04:38:36.447Z,67.00
2022-07-26T04:41:03.689Z,67.70
2022-07-26T04:43:30.713Z,67.50
2022-07-26T04:45:57.944Z,67.50
2022-07-26T04:48:25.383Z,67.80
2022-07-26T04:50:52.710Z,65.60
2022-07-26T04:53:19.894Z,67.80
2022-07-26T04:55:46.826Z,67.50
2022-07-26T04:58:13.841Z,65.10
2022-07-26T05:01:08.604Z,66.00
2022-07-26T05:03:27.892Z,64.40
2022-07-26T05:05:54.827Z,65.00
2022-07-26T05:08:21.918Z,66.50
2022-07-26T05:10:54.911Z,65.70
2022-07-26T05:13:23.182Z,66.30
2022-07-26T05:15:58.305Z,64.30
2022-07-26T05:18:25.962Z,63.50
2022-07-26T05:20:53.148Z,62.50
2022-07-26T05:23:20.051Z,59.60
2022-07-26T05:25:47.162Z,58.90
2022-07-26T05:28:14.492Z,58.50
2022-07-26T05:30:41.569Z,57.70
2022-07-26T05:33:08.600Z,57.80
2022-07-26T05:35:35.490Z,57.50
2022-07-26T05:38:02.560Z,55.50
2022-07-26T05:40:29.607Z,55.50
2022-07-26T05:42:56.682Z,55.40
2022-07-26T05:45:23.630Z,56.00
2022-07-26T05:47:51.320Z,54.90
2022-07-26T05:50:19.335Z,55.80
2022-07-26T05:52:46.473Z,56.20
2022-07-26T05:55:13.696Z,53.90
2022-07-26T05:57:40.905Z,54.30
2022-07-26T06:00:09.369Z,53.90
2022-07-26T06:02:39.409Z,53.10
2022-07-26T06:05:07.012Z,56.50
2022-07-26T06:07:34.351Z,56.40
2022-07-26T06:10:01.390Z,56.30
2022-07-26T06:12:28.361Z,56.50
2022-07-26T06:14:55.309Z,56.60
2022-07-26T06:17:22.355Z,56.80
2022-07-26T06:19:49.398Z,57.10
2022-07-26T06:22:16.501Z,56.80
2022-07-26T06:24:43.456Z,57.10
2022-07-26T06:27:10.391Z,57.70
2022-07-26T06:29:37.384Z,57.10
2022-07-26T06:32:04.451Z,57.60
2022-07-26T06:34:31.379Z,57.30
2022-07-26T06:36:59.072Z,58.20
2022-07-26T06:39:26.410Z,58.90
2022-07-26T06:41:53.879Z,58.60
2022-07-26T06:44:22.810Z,58.90
2022-07-26T06:46:49.926Z,59.00
2022-07-26T06:49:20.760Z,58.80
2022-07-26T06:51:49.360Z,59.40
2022-07-26T06:54:16.378Z,59.60
2022-07-26T06:56:43.368Z,59.60
2022-07-26T06:59:10.336Z,58.20
2022-07-26T07:01:58.364Z,59.10
2022-07-26T07:04:24.311Z,57.50
2022-07-26T07:06:51.370Z,58.50
2022-07-26T07:09:19.796Z,58.30
2022-07-26T07:11:48.425Z,58.70
2022-07-26T07:14:18.896Z,58.90
2022-07-26T07:16:45.959Z,59.80
2022-07-26T07:19:13.147Z,60.10
2022-07-26T07:21:40.065Z,60.30
2022-07-26T07:24:08.220Z,60.00
2022-07-26T07:26:35.344Z,59.90
2022-07-26T07:29:04.055Z,60.30
2022-07-26T07:31:48.968Z,61.10
2022-07-26T07:34:19.455Z,60.60
2022-07-26T07:36:47.143Z,59.70
2022-07-26T07:39:17.281Z,59.80
2022-07-26T07:41:45.854Z,60.30
2022-07-26T07:44:13.461Z,59.90
2022-07-26T07:46:41.159Z,59.70
2022-07-26T07:49:08.431Z,60.60
2022-07-26T07:51:36.227Z,59.50
2022-07-26T07:54:05.927Z,59.60
2022-07-26T07:56:33.626Z,59.40
2022-07-26T07:59:01.123Z,59.90
2022-07-26T08:01:39.791Z,60.20
2022-07-26T08:04:09.116Z,60.30
2022-07-26T08:06:36.968Z,61.10
2022-07-26T08:09:05.389Z,61.30
2022-07-26T08:11:33.830Z,61.20
2022-07-26T08:14:01.720Z,61.70
2022-07-26T08:16:28.835Z,62.40
2022-07-26T08:18:57.869Z,63.80
2022-07-26T08:21:28.076Z,63.90
2022-07-26T08:23:55.381Z,63.00
2022-07-26T08:26:22.302Z,63.90
2022-07-26T08:28:58.290Z,64.20
2022-07-26T08:31:26.582Z,65.30
2022-07-26T08:33:53.500Z,66.50
2022-07-26T08:36:20.454Z,66.40
2022-07-26T08:38:48.505Z,67.80
2022-07-26T08:41:17.300Z,66.50
2022-07-26T08:43:52.102Z,66.80
2022-07-26T08:46:27.107Z,67.10
2022-07-26T08:48:58.084Z,67.00
2022-07-26T08:51:26.500Z,68.20
2022-07-26T08:54:04.906Z,67.90
2022-07-26T08:56:37.807Z,67.30
2022-07-26T08:59:18.627Z,68.30
2022-07-26T09:01:59.594Z,67.10
2022-07-26T09:04:32.952Z,67.80
2022-07-26T09:07:11.944Z,67.40
2022-07-26T09:09:56.288Z,67.90
2022-07-26T09:12:24.932Z,68.50
2022-07-26T09:14:52.489Z,67.70
2022-07-26T09:17:21.640Z,67.80
2022-07-26T09:20:07.430Z,67.50
2022-07-26T09:22:34.349Z,68.50
2022-07-26T09:25:01.775Z,68.10
2022-07-26T09:27:36.011Z,67.00
2022-07-26T09:30:08.959Z,65.70
2022-07-26T09:32:35.974Z,65.40
2022-07-26T09:35:45.396Z,66.60
2022-07-26T09:38:12.773Z,66.80
2022-07-26T09:40:40.278Z,66.70
2022-07-26T09:43:09.952Z,67.20
2022-07-26T09:45:37.193Z,67.70
2022-07-26T09:48:04.847Z,67.90
2022-07-26T09:50:33.441Z,69.00
2022-07-26T09:53:13.195Z,71.60
2022-07-26T09:55:46.539Z,74.80
2022-07-26T09:58:15.487Z,77.10
2022-07-26T10:00:43.677Z,77.30
2022-07-26T10:03:10.863Z,77.90
2022-07-26T10:05:38.017Z,78.00
2022-07-26T10:08:06.375Z,80.30
2022-07-26T10:11:08.796Z,82.50
2022-07-26T10:13:35.747Z,81.70
2022-07-26T10:16:02.903Z,83.40
2022-07-26T10:18:39.323Z,84.20
2022-07-26T10:21:16.638Z,85.10
2022-07-26T10:23:45.464Z,85.20
2022-07-26T10:26:31.101Z,84.40
2022-07-26T10:29:18.307Z,85.60
2022-07-26T10:31:46.122Z,88.60
2022-07-26T10:34:40.130Z,90.50
2022-07-26T10:37:10.378Z,91.70
2022-07-26T10:39:38.956Z,92.90
2022-07-26T10:42:11.157Z,93.90
2022-07-26T10:44:40.208Z,94.00
2022-07-26T10:47:07.273Z,94.80
2022-07-26T10:49:38.126Z,95.10
2022-07-26T10:52:06.530Z,95.40
2022-07-26T10:54:59.551Z,94.60
2022-07-26T10:57:31.333Z,95.70
2022-07-26T10:59:59.631Z,96.50
2022-07-26T11:02:32.784Z,96.40
2022-07-26T11:05:10.223Z,97.10
2022-07-26T11:07:50.515Z,95.90
2022-07-26T11:10:26.524Z,97.00
2022-07-26T11:13:00.276Z,97.60
2022-07-26T11:15:27.385Z,98.40
2022-07-26T11:18:10.089Z,97.80
2022-07-26T11:20:37.659Z,98.50
2022-07-26T11:23:18.977Z,98.10
2022-07-26T11:26:10.097Z,98.40
2022-07-26T11:29:06.238Z,96.40
2022-07-26T11:31:55.570Z,97.10
2022-07-26T11:34:29.575Z,96.10
2022-07-26T11:36:58.914Z,99.00
2022-07-26T11:39:31.173Z,98.90
2022-07-26T11:42:19.397Z,98.70
2022-07-26T11:44:47.881Z,97.80
2022-07-26T11:47:19.257Z,99.90
2022-07-26T11:50:00.287Z,99.90
2022-07-26T11:52:33.882Z,98.10
2022-07-26T11:55:00.941Z,99.90
2022-07-26T11:57:29.901Z,99.90
2022-07-26T11:59:58.099Z,99.90
2022-07-26T12:02:25.936Z,99.90
2022-07-26T12:05:17.068Z,99.90
2022-07-26T12:07:55.195Z,99.90
2022-07-26T12:10:22.463Z,99.90
2022-07-26T12:12:49.643Z,98.30
2022-07-26T12:15:16.722Z,98.90
2022-07-26T12:17:59.920Z,98.40
2022-07-26T12:20:26.861Z,96.00
2022-07-26T12:22:54.806Z,97.00
2022-07-26T12:25:26.585Z,94.50
2022-07-26T12:27:53.753Z,94.40
2022-07-26T12:30:21.402Z,94.20
2022-07-26T12:32:49.720Z,95.20
2022-07-26T12:35:18.312Z,94.70
2022-07-26T12:37:48.359Z,96.70
2022-07-26T12:40:16.683Z,95.80
2022-07-26T12:42:44.900Z,95.70
2022-07-26T12:45:13.364Z,97.40
2022-07-26T12:47:43.888Z,95.40
2022-07-26T12:50:12.237Z,96.10
2022-07-26T12:52:39.989Z,97.60
2022-07-26T12:55:09.187Z,95.10
2022-07-26T12:57:36.831Z,95.00
2022-07-26T13:00:06.735Z,95.40
2022-07-26T13:02:33.925Z,96.40
2022-07-26T13:05:01.352Z,96.80
2022-07-26T13:07:28.473Z,96.40
2022-07-26T13:10:30.048Z,96.50
2022-07-26T13:12:42.510Z,97.00
2022-07-26T13:15:09.970Z,97.20
2022-07-26T13:17:36.972Z,98.10
2022-07-26T13:20:04.709Z,97.30
2022-07-26T13:22:31.718Z,96.80
2022-07-26T13:24:59.419Z,97.00
2022-07-26T13:27:35.986Z,94.90
2022-07-26T13:30:04.272Z,93.80
2022-07-26T13:32:31.312Z,93.60
2022-07-26T13:34:58.237Z,93.60
2022-07-26T13:37:25.191Z,93.60
2022-07-26T13:39:52.256Z,92.60
2022-07-26T13:42:19.426Z,92.20
2022-07-26T13:44:46.315Z,90.40
2022-07-26T13:47:13.295Z,90.60
2022-07-26T13:49:40.459Z,90.60
2022-07-26T13:52:10.854Z,91.30
2022-07-26T13:54:42.215Z,91.20
2022-07-26T13:57:09.270Z,90.60
2022-07-26T13:59:36.271Z,90.60
2022-07-26T14:02:03.510Z,91.20
2022-07-26T14:04:33.381Z,91.00
2022-07-26T14:07:00.719Z,90.10
2022-07-26T14:09:27.650Z,90.00
2022-07-26T14:11:54.745Z,89.70
2022-07-26T14:14:21.693Z,90.30
2022-07-26T14:16:49.636Z,90.40
2022-07-26T14:19:17.150Z,91.20
2022-07-26T14:21:58.590Z,91.10
2022-07-26T14:24:27.839Z,90.60
2022-07-26T14:26:58.785Z,91.20
2022-07-26T14:29:27.401Z,90.00
2022-07-26T14:31:54.543Z,90.70
2022-07-26T14:34:21.567Z,90.90
2022-07-26T14:36:48.955Z,90.40
2022-07-26T14:39:15.863Z,91.30
2022-07-26T14:41:42.787Z,89.40
2022-07-26T14:44:09.927Z,90.60
2022-07-26T14:46:37.001Z,89.40
2022-07-26T14:49:04.088Z,87.60
2022-07-26T14:51:31.333Z,89.40
2022-07-26T14:53:58.413Z,89.50
2022-07-26T14:56:25.408Z,89.20
2022-07-26T14:58:52.387Z,89.40
2022-07-26T15:01:19.456Z,87.60
2022-07-26T15:03:46.610Z,89.20
2022-07-26T15:06:13.772Z,88.00
2022-07-26T15:08:40.683Z,89.60
2022-07-26T15:11:07.823Z,88.80
2022-07-26T15:13:35.546Z,89.40
2022-07-26T15:16:02.929Z,88.50
2022-07-26T15:18:30.925Z,88.90
2022-07-26T15:20:58.032Z,88.40
2022-07-26T15:23:25.591Z,89.40
2022-07-26T15:25:52.834Z,88.80
2022-07-26T15:28:19.920Z,89.00
2022-07-26T15:30:46.896Z,87.50
2022-07-26T15:33:13.937Z,87.80
2022-07-26T15:35:41.371Z,86.80
2022-07-26T15:38:08.392Z,88.20
2022-07-26T15:40:35.286Z,86.70
2022-07-26T15:43:02.248Z,87.30
2022-07-26T15:45:30.118Z,87.30
2022-07-26T15:48:13.436Z,85.70
2022-07-26T15:50:44.189Z,86.80
2022-07-26T15:53:14.842Z,85.50
2022-07-26T15:55:41.778Z,85.10
2022-07-26T15:58:08.712Z,86.20
2022-07-26T16:00:35.818Z,85.90
2022-07-26T16:03:02.856Z,86.10
2022-07-26T16:05:30.261Z,86.50
2022-07-26T16:07:57.241Z,86.50
2022-07-26T16:10:24.227Z,86.60
2022-07-26T16:12:51.192Z,87.10
2022-07-26T16:15:18.499Z,87.00
2022-07-26T16:17:45.441Z,86.70
2022-07-26T16:20:12.448Z,87.10
2022-07-26T16:22:39.315Z,87.80
2022-07-26T16:25:07.157Z,86.50
2022-07-26T16:27:34.067Z,87.10
2022-07-26T16:30:01.012Z,86.60
2022-07-26T16:32:28.013Z,86.70
2022-07-26T16:34:54.946Z,86.60
2022-07-26T16:37:21.999Z,86.90
2022-07-26T16:39:48.925Z,86.90
2022-07-26T16:42:16.098Z,87.10
2022-07-26T16:44:42.978Z,87.00
2022-07-26T16:47:10.072Z,88.20
2022-07-26T16:49:37.171Z,87.80
2022-07-26T16:52:04.314Z,89.10
2022-07-26T16:54:31.702Z,89.00
2022-07-26T16:56:59.274Z,88.60
2022-07-26T16:59:27.060Z,89.00
2022-07-26T17:01:54.484Z,89.40
2022-07-26T17:04:21.524Z,89.10
2022-07-26T17:07:14.550Z,90.10
2022-07-26T17:09:36.360Z,90.30
2022-07-26T17:12:06.628Z,90.20
2022-07-26T17:14:34.047Z,90.20
2022-07-26T17:17:00.939Z,90.60
2022-07-26T17:19:27.887Z,90.60
2022-07-26T17:21:54.843Z,90.50
2022-07-26T17:24:21.868Z,90.50
2022-07-26T17:26:48.987Z,90.60
2022-07-26T17:29:16.013Z,90.40
2022-07-26T17:31:43.046Z,90.50
2022-07-26T17:34:10.151Z,90.60
2022-07-26T17:36:37.282Z,90.60
2022-07-26T17:39:04.579Z,90.60
2022-07-26T17:41:33.597Z,90.80
2022-07-26T17:44:01.912Z,90.60
2022-07-26T17:46:29.324Z,90.70
2022-07-26T17:48:56.375Z,90.70
2022-07-26T17:51:23.411Z,90.60
2022-07-26T17:53:53.249Z,90.80
2022-07-26T17:56:20.412Z,90.70
2022-07-26T17:58:47.336Z,90.90
2022-07-26T18:01:14.358Z,90.90
2022-07-26T18:03:41.419Z,90.90
2022-07-26T18:06:08.424Z,90.70
2022-07-26T18:08:35.360Z,90.70
2022-07-26T18:11:02.371Z,90.50
2022-07-26T18:13:29.400Z,90.40
2022-07-26T18:15:57.065Z,90.20
2022-07-26T18:18:24.230Z,90.30
2022-07-26T18:20:51.285Z,90.30
2022-07-26T18:23:18.794Z,89.50
2022-07-26T18:25:45.845Z,89.80
2022-07-26T18:28:12.802Z,90.20
2022-07-26T18:30:39.962Z,89.90
2022-07-26T18:33:07.242Z,89.90
2022-07-26T18:35:34.266Z,90.00
2022-07-26T18:38:01.365Z,89.50
2022-07-26T18:40:28.289Z,89.30
2022-07-26T18:42:55.237Z,89.20
2022-07-26T18:45:22.372Z,88.20
2022-07-26T18:47:49.416Z,89.20
2022-07-26T18:50:16.993Z,88.80
2022-07-26T18:52:44.593Z,89.40
2022-07-26T18:55:13.174Z,88.40
2022-07-26T18:57:41.632Z,89.30
2022-07-26T19:00:14.182Z,89.30
2022-07-26T19:02:42.319Z,88.40
2022-07-26T19:05:09.799Z,89.20
2022-07-26T19:07:37.156Z,89.80
2022-07-26T19:10:06.539Z,88.80
2022-07-26T19:12:33.603Z,88.00
2022-07-26T19:15:00.712Z,87.80
2022-07-26T19:17:30.327Z,88.30
2022-07-26T19:20:00.235Z,88.90
2022-07-26T19:22:27.346Z,88.40
2022-07-26T19:24:54.280Z,87.40
2022-07-26T19:27:21.390Z,88.00
2022-07-26T19:29:48.587Z,88.00
2022-07-26T19:32:15.713Z,88.40
2022-07-26T19:34:42.846Z,87.60
2022-07-26T19:37:09.865Z,87.80
2022-07-26T19:39:36.872Z,88.20
2022-07-26T19:42:04.026Z,88.30
2022-07-26T19:44:30.927Z,88.50
2022-07-26T19:46:58.161Z,88.70
2022-07-26T19:49:25.391Z,90.00
2022-07-26T19:51:52.414Z,89.30
2022-07-26T19:54:19.399Z,89.20
2022-07-26T19:56:46.447Z,89.20
2022-07-26T19:59:16.872Z,89.50
2022-07-26T20:01:46.697Z,89.50
2022-07-26T20:04:13.792Z,89.50
2022-07-26T20:06:41.144Z,89.30
2022-07-26T20:09:08.408Z,88.10
2022-07-26T20:11:35.974Z,88.40
2022-07-26T20:14:03.998Z,88.00
2022-07-26T20:16:31.160Z,88.20
2022-07-26T20:18:58.771Z,88.60
2022-07-26T20:21:25.743Z,87.90
2022-07-26T20:23:52.637Z,87.90
2022-07-26T20:26:19.546Z,87.20
2022-07-26T20:28:46.578Z,87.70
2022-07-26T20:31:16.057Z,87.90
2022-07-26T20:33:43.013Z,87.50
2022-07-26T20:36:09.983Z,87.40
2022-07-26T20:38:36.934Z,87.90
2022-07-26T20:41:03.888Z,87.30
2022-07-26T20:43:32.832Z,87.80
2022-07-26T20:46:01.903Z,88.60
2022-07-26T20:48:28.914Z,88.40
2022-07-26T20:50:55.846Z,88.10
2022-07-26T20:53:22.843Z,88.80
2022-07-26T20:55:49.730Z,89.40
2022-07-26T20:58:16.664Z,89.10
2022-07-26T21:00:43.876Z,88.60
2022-07-26T21:03:10.827Z,88.70
2022-07-26T21:05:37.792Z,88.80
2022-07-26T21:10:32.628Z,88.80
2022-07-26T21:12:59.511Z,88.80
2022-07-26T21:15:26.763Z,87.90
2022-07-26T21:17:53.678Z,87.70
2022-07-26T21:20:20.998Z,87.40
2022-07-26T21:22:48.168Z,87.60
2022-07-26T21:25:15.221Z,87.20
2022-07-26T21:27:42.128Z,86.80
2022-07-26T21:30:09.742Z,86.60
2022-07-26T21:32:36.647Z,86.80
2022-07-26T21:35:04.176Z,86.90
2022-07-26T21:37:31.136Z,86.90
2022-07-26T21:40:00.855Z,86.70
2022-07-26T21:42:28.284Z,86.30
2022-07-26T21:44:55.255Z,86.00
2022-07-26T21:47:22.186Z,86.20
2022-07-26T21:49:49.134Z,85.50
2022-07-26T21:52:16.129Z,86.00
2022-07-26T21:54:43.077Z,85.60
2022-07-26T21:57:10.073Z,86.00
2022-07-26T21:59:37.065Z,85.00
2022-07-26T22:02:04.142Z,85.20
2022-07-26T22:04:31.228Z,84.70
2022-07-26T22:06:58.235Z,84.90
2022-07-26T22:09:25.349Z,84.40
2022-07-26T22:11:53.350Z,83.80
2022-07-26T22:14:21.780Z,83.90
2022-07-26T22:16:49.143Z,84.40
2022-07-26T22:19:16.290Z,84.30
2022-07-26T22:21:43.282Z,84.50
2022-07-26T22:24:10.342Z,84.20
2022-07-26T22:26:38.156Z,83.10
2022-07-26T22:29:05.202Z,83.10
2022-07-26T22:31:32.366Z,83.40
2022-07-26T22:33:59.362Z,82.90
2022-07-26T22:36:26.315Z,82.20
2022-07-26T22:38:53.461Z,81.60
2022-07-26T22:41:20.407Z,82.10
2022-07-26T22:43:47.405Z,81.00
2022-07-26T22:46:14.539Z,81.40
2022-07-26T22:48:44.544Z,82.40
2022-07-26T22:51:14.919Z,82.50
2022-07-26T22:53:41.866Z,82.10
2022-07-26T22:56:08.940Z,82.50
2022-07-26T22:58:35.990Z,82.70
2022-07-26T23:01:03.142Z,82.10
2022-07-26T23:03:30.789Z,81.40
2022-07-26T23:06:00.193Z,82.30
2022-07-26T23:08:46.585Z,81.80
2022-07-26T23:11:14.520Z,81.40
2022-07-26T23:13:41.579Z,81.20
2022-07-26T23:16:08.619Z,81.60
2022-07-26T23:18:36.468Z,80.80
2022-07-26T23:21:04.278Z,81.40
2022-07-26T23:23:31.712Z,81.30
2022-07-26T23:25:59.610Z,82.50
2022-07-26T23:28:36.758Z,81.90
2022-07-26T23:31:10.344Z,81.10
2022-07-26T23:33:51.441Z,81.60
2022-07-26T23:36:28.595Z,81.40
2022-07-26T23:38:57.347Z,81.40
2022-07-26T23:41:25.115Z,81.90
2022-07-26T23:43:52.790Z,81.30
2022-07-26T23:46:20.167Z,81.50
2022-07-26T23:48:47.706Z,80.80
2022-07-26T23:51:14.986Z,81.40
2022-07-26T23:53:42.297Z,80.50
2022-07-26T23:56:09.287Z,80.60
2022-07-26T23:58:36.388Z,81.00
